createdAt,value
2019-04-26T00:02:24.103Z,2.42
2019-04-26T00:04:58.706Z,4.60
2019-04-26T00:07:31.981Z,1.70
2019-04-26T00:10:10.370Z,3.75
2019-04-26T00:12:51.309Z,5.00
2019-04-26T00:15:43.352Z,3.42
2019-04-26T00:18:16.768Z,1.57
2019-04-26T00:20:50.035Z,1.42
2019-04-26T00:23:23.701Z,3.17
2019-04-26T00:25:56.763Z,1.60
2019-04-26T00:28:30.218Z,3.15
2019-04-26T00:31:03.616Z,1.82
2019-04-26T00:33:37.115Z,2.27
2019-04-26T00:36:09.889Z,1.70
2019-04-26T00:38:43.353Z,1.72
2019-04-26T00:41:18.470Z,1.77
2019-04-26T00:43:51.928Z,2.27
2019-04-26T00:46:28.021Z,1.67
2019-04-26T00:49:04.073Z,3.22
2019-04-26T00:51:37.688Z,2.67
2019-04-26T00:54:10.613Z,2.15
2019-04-26T00:56:44.171Z,5.72
2019-04-26T00:59:18.361Z,3.08
2019-04-26T01:01:56.373Z,2.12
2019-04-26T01:04:29.449Z,1.95
2019-04-26T01:07:02.452Z,2.58
2019-04-26T01:09:35.928Z,2.85
2019-04-26T01:12:08.840Z,2.65
2019-04-26T01:14:42.351Z,2.62
2019-04-26T01:17:16.183Z,2.45
2019-04-26T01:19:54.241Z,2.95
2019-04-26T01:22:32.276Z,3.15
2019-04-26T01:25:05.711Z,4.10
2019-04-26T01:27:39.637Z,2.35
2019-04-26T01:30:13.154Z,2.47
2019-04-26T01:32:45.954Z,2.55
2019-04-26T01:35:20.367Z,2.33
2019-04-26T01:37:54.307Z,4.03
2019-04-26T01:40:29.254Z,5.20
2019-04-26T01:43:18.170Z,3.55
2019-04-26T01:45:58.857Z,2.77
2019-04-26T01:48:45.914Z,2.30
2019-04-26T01:51:26.629Z,3.67
2019-04-26T01:54:00.807Z,2.67
2019-04-26T01:56:36.001Z,2.80
2019-04-26T01:59:12.181Z,3.25
2019-04-26T02:02:03.562Z,4.15
2019-04-26T02:04:39.799Z,3.52
2019-04-26T02:07:15.495Z,4.40
2019-04-26T02:09:48.772Z,3.77
2019-04-26T02:12:22.448Z,4.95
2019-04-26T02:14:56.691Z,3.70
2019-04-26T02:17:30.186Z,3.42
2019-04-26T02:20:03.593Z,3.50
2019-04-26T02:22:57.161Z,3.65
2019-04-26T02:25:30.136Z,5.65
2019-04-26T02:28:03.137Z,3.75
2019-04-26T02:30:36.880Z,4.00
2019-04-26T02:33:09.525Z,4.70
2019-04-26T02:35:42.619Z,3.92
2019-04-26T02:38:16.117Z,5.67
2019-04-26T02:40:50.133Z,3.62
2019-04-26T02:43:27.826Z,5.10
2019-04-26T02:46:09.211Z,5.72
2019-04-26T02:49:02.062Z,5.42
2019-04-26T02:51:40.154Z,5.10
2019-04-26T02:54:22.278Z,6.17
2019-04-26T02:56:58.840Z,5.37
2019-04-26T02:59:45.361Z,7.33
2019-04-26T03:02:22.952Z,6.83
2019-04-26T03:05:02.376Z,7.72
2019-04-26T03:07:51.529Z,6.35
2019-04-26T03:10:35.903Z,6.83
2019-04-26T03:13:17.095Z,8.08
2019-04-26T03:16:10.892Z,9.53
2019-04-26T03:19:08.614Z,9.00
2019-04-26T03:22:23.439Z,11.78
2019-04-26T03:25:14.589Z,13.25
2019-04-26T03:27:57.716Z,14.85
2019-04-26T03:30:49.093Z,19.50
2019-04-26T03:33:57.992Z,16.93
2019-04-26T03:36:59.221Z,19.77
2019-04-26T03:39:51.512Z,19.90
2019-04-26T03:43:08.053Z,26.95
2019-04-26T03:46:45.324Z,31.75
2019-04-26T03:49:56.240Z,29.72
2019-04-26T03:53:28.735Z,29.95
2019-04-26T03:56:43.580Z,32.95
2019-04-26T03:59:44.226Z,40.23
2019-04-26T04:02:42.845Z,36.88
2019-04-26T04:05:48.038Z,35.20
2019-04-26T04:08:26.291Z,36.15
2019-04-26T04:11:05.238Z,37.25
2019-04-26T04:14:05.052Z,38.65
2019-04-26T04:17:23.279Z,42.90
2019-04-26T04:20:33.740Z,37.58
2019-04-26T04:23:17.895Z,41.10
2019-04-26T04:25:54.029Z,38.40
2019-04-26T04:29:17.755Z,37.15
2019-04-26T04:31:55.691Z,36.83
2019-04-26T04:34:41.485Z,32.83
2019-04-26T04:37:16.852Z,34.25
2019-04-26T04:40:14.017Z,39.15
2019-04-26T04:43:15.095Z,31.48
2019-04-26T04:46:30.180Z,25.37
2019-04-26T04:49:30.365Z,27.48
2019-04-26T04:52:33.862Z,26.70
2019-04-26T04:55:15.165Z,28.35
2019-04-26T04:58:10.999Z,25.27
2019-04-26T05:01:50.604Z,22.87
2019-04-26T05:05:04.865Z,22.22
2019-04-26T05:08:12.054Z,23.02
2019-04-26T05:11:02.084Z,20.92
2019-04-26T05:13:43.766Z,23.85
2019-04-26T05:16:40.390Z,22.73
2019-04-26T05:19:40.221Z,22.17
2019-04-26T05:22:36.004Z,22.62
2019-04-26T05:25:51.469Z,20.30
2019-04-26T05:28:37.604Z,15.85
2019-04-26T05:31:54.380Z,17.23
2019-04-26T05:34:57.523Z,18.42
2019-04-26T05:38:17.821Z,19.87
2019-04-26T05:41:31.853Z,18.55
2019-04-26T05:44:31.999Z,21.62
2019-04-26T05:47:41.193Z,20.30
2019-04-26T05:50:51.837Z,20.55
2019-04-26T05:54:43.929Z,20.95
2019-04-26T05:58:09.443Z,20.15
2019-04-26T06:01:25.949Z,23.73
2019-04-26T06:04:26.994Z,18.50
2019-04-26T06:07:45.155Z,18.42
2019-04-26T06:10:30.922Z,18.07
2019-04-26T06:13:43.336Z,22.27
2019-04-26T06:17:10.830Z,19.17
2019-04-26T06:20:02.652Z,17.25
2019-04-26T06:23:00.756Z,17.12
2019-04-26T06:25:48.566Z,15.50
2019-04-26T06:28:49.391Z,15.90
2019-04-26T06:31:39.705Z,14.95
2019-04-26T06:34:35.713Z,16.60
2019-04-26T06:37:24.734Z,14.47
2019-04-26T06:40:17.317Z,16.12
2019-04-26T06:43:26.409Z,16.85
2019-04-26T06:46:53.422Z,15.70
2019-04-26T06:50:10.030Z,15.93
2019-04-26T06:52:53.998Z,14.00
2019-04-26T06:55:37.708Z,17.35
2019-04-26T06:58:54.403Z,16.07
2019-04-26T07:01:37.280Z,14.15
2019-04-26T07:04:59.248Z,15.10
2019-04-26T07:07:57.150Z,14.05
2019-04-26T07:10:59.355Z,15.32
2019-04-26T07:13:51.074Z,14.93
2019-04-26T07:16:37.555Z,13.58
2019-04-26T07:19:19.238Z,16.15
2019-04-26T07:22:35.596Z,13.35
2019-04-26T07:25:35.982Z,14.23
2019-04-26T07:28:30.999Z,14.70
2019-04-26T07:31:49.783Z,14.93
2019-04-26T07:34:43.833Z,13.40
2019-04-26T07:37:54.405Z,13.00
2019-04-26T07:41:35.877Z,13.40
2019-04-26T07:44:42.275Z,12.28
2019-04-26T07:48:18.465Z,12.28
2019-04-26T07:51:35.083Z,13.53
2019-04-26T07:55:04.853Z,12.07
2019-04-26T07:58:27.579Z,14.30
2019-04-26T08:01:24.569Z,11.30
2019-04-26T08:04:07.310Z,10.50
2019-04-26T08:07:08.917Z,10.60
2019-04-26T08:09:59.559Z,11.63
2019-04-26T08:12:27.716Z,10.75
2019-04-26T08:15:31.322Z,12.90
2019-04-26T08:18:21.309Z,12.65
2019-04-26T08:21:14.410Z,13.38
2019-04-26T08:23:59.577Z,14.93
2019-04-26T08:26:34.638Z,14.10
2019-04-26T08:29:10.559Z,15.05
2019-04-26T08:31:47.729Z,15.13
2019-04-26T08:34:28.855Z,16.00
2019-04-26T08:37:10.474Z,16.42
2019-04-26T08:39:50.441Z,15.10
2019-04-26T08:42:25.163Z,16.87
2019-04-26T08:45:17.080Z,21.97
2019-04-26T08:48:10.438Z,17.23
2019-04-26T08:50:47.748Z,19.77
2019-04-26T08:53:24.188Z,17.35
2019-04-26T08:56:01.395Z,18.67
2019-04-26T08:58:38.621Z,20.43
2019-04-26T09:01:38.441Z,21.02
2019-04-26T09:04:18.559Z,19.37
2019-04-26T09:07:20.031Z,23.20
2019-04-26T09:09:57.374Z,21.17
2019-04-26T09:12:33.733Z,20.15
2019-04-26T09:15:11.186Z,21.73
2019-04-26T09:17:44.063Z,18.42
2019-04-26T09:20:28.337Z,21.65
2019-04-26T09:23:19.939Z,19.90
2019-04-26T09:25:59.364Z,20.02
2019-04-26T09:28:59.093Z,22.10
2019-04-26T09:31:55.382Z,19.60
2019-04-26T09:34:28.888Z,20.12
2019-04-26T09:37:02.301Z,22.07
2019-04-26T09:39:35.008Z,22.55
2019-04-26T09:42:21.090Z,20.35
2019-04-26T09:45:14.982Z,21.10
2019-04-26T09:47:51.565Z,16.97
2019-04-26T09:50:32.319Z,13.95
2019-04-26T09:53:05.896Z,15.13
2019-04-26T09:55:39.385Z,15.65
2019-04-26T09:58:12.957Z,15.35
2019-04-26T10:00:48.594Z,15.60
2019-04-26T10:03:21.320Z,10.90
2019-04-26T10:05:55.814Z,11.63
2019-04-26T10:08:30.247Z,11.88
2019-04-26T10:11:05.778Z,10.05
2019-04-26T10:13:45.265Z,11.85
2019-04-26T10:16:52.514Z,10.55
2019-04-26T10:19:47.743Z,10.90
2019-04-26T10:22:22.553Z,12.23
2019-04-26T10:24:55.908Z,11.10
2019-04-26T10:27:28.994Z,9.20
2019-04-26T10:30:07.866Z,13.80
2019-04-26T10:32:37.829Z,9.60
2019-04-26T10:35:11.020Z,10.70
2019-04-26T10:37:48.135Z,11.10
2019-04-26T10:40:20.075Z,10.95
2019-04-26T10:42:53.658Z,12.60
2019-04-26T10:45:28.721Z,11.90
2019-04-26T10:48:03.811Z,13.62
2019-04-26T10:50:39.311Z,15.75
2019-04-26T10:53:31.672Z,10.60
2019-04-26T10:56:25.372Z,12.28
2019-04-26T10:59:17.648Z,10.88
2019-04-26T11:01:50.170Z,13.30
2019-04-26T11:04:25.835Z,11.00
2019-04-26T11:07:01.913Z,11.60
2019-04-26T11:09:33.436Z,13.03
2019-04-26T11:12:09.112Z,13.45
2019-04-26T11:14:42.318Z,15.15
2019-04-26T11:17:17.747Z,13.80
2019-04-26T11:19:50.966Z,13.48
2019-04-26T11:22:29.354Z,12.25
2019-04-26T11:24:59.557Z,13.20
2019-04-26T11:27:32.698Z,14.33
2019-04-26T11:30:11.553Z,14.38
2019-04-26T11:32:41.812Z,13.30
2019-04-26T11:35:15.218Z,13.20
2019-04-26T11:37:50.550Z,13.93
2019-04-26T11:40:23.011Z,13.00
2019-04-26T11:42:56.542Z,13.48
2019-04-26T11:45:33.755Z,14.47
2019-04-26T11:48:07.472Z,15.65
2019-04-26T11:50:41.344Z,16.05
2019-04-26T11:53:14.732Z,17.27
2019-04-26T11:55:48.355Z,16.10
2019-04-26T11:58:22.628Z,17.23
2019-04-26T12:01:00.270Z,18.40
2019-04-26T12:03:33.447Z,19.12
2019-04-26T12:06:25.729Z,19.33
2019-04-26T12:09:06.720Z,21.47
2019-04-26T12:11:49.379Z,25.13
2019-04-26T12:14:20.526Z,26.47
2019-04-26T12:16:59.242Z,26.93
2019-04-26T12:19:28.205Z,26.83
2019-04-26T12:22:04.172Z,29.00
2019-04-26T12:24:38.065Z,29.10
2019-04-26T12:27:10.916Z,30.45
2019-04-26T12:29:48.251Z,31.17
2019-04-26T12:32:19.996Z,29.67
2019-04-26T12:34:53.845Z,30.93
2019-04-26T12:37:27.252Z,30.90
2019-04-26T12:39:59.778Z,28.73
2019-04-26T12:42:34.529Z,31.68
2019-04-26T12:45:25.966Z,31.25
2019-04-26T12:47:59.671Z,30.37
2019-04-26T12:50:36.779Z,35.20
2019-04-26T12:53:07.880Z,34.38
2019-04-26T12:55:41.392Z,33.18
2019-04-26T12:58:15.454Z,32.60
2019-04-26T13:00:54.144Z,33.98
2019-04-26T13:03:29.286Z,32.65
2019-04-26T13:06:01.472Z,37.30
2019-04-26T13:08:34.959Z,37.00
2019-04-26T13:11:23.090Z,36.85
2019-04-26T13:14:04.566Z,36.98
2019-04-26T13:16:53.411Z,36.88
2019-04-26T13:19:26.320Z,39.48
2019-04-26T13:21:59.901Z,37.98
2019-04-26T13:24:35.405Z,40.70
2019-04-26T13:27:10.719Z,37.93
2019-04-26T13:29:43.292Z,45.80
2019-04-26T13:32:16.467Z,41.08
2019-04-26T13:34:50.065Z,39.88
2019-04-26T13:37:25.102Z,42.03
2019-04-26T13:39:58.625Z,40.67
2019-04-26T13:42:31.415Z,41.08
2019-04-26T13:45:17.580Z,46.10
2019-04-26T13:48:08.621Z,40.25
2019-04-26T13:51:05.666Z,41.05
2019-04-26T13:53:39.010Z,41.95
2019-04-26T13:56:12.993Z,43.60
2019-04-26T13:58:46.643Z,35.43
2019-04-26T14:01:20.012Z,41.05
2019-04-26T14:03:53.645Z,43.80
2019-04-26T14:06:26.958Z,38.80
2019-04-26T14:09:03.007Z,39.08
2019-04-26T14:11:39.660Z,37.48
2019-04-26T14:14:12.877Z,43.90
2019-04-26T14:16:46.337Z,40.03
2019-04-26T14:19:18.624Z,39.92
2019-04-26T14:21:53.224Z,37.00
2019-04-26T14:24:46.636Z,41.28
2019-04-26T14:27:32.927Z,42.83
2019-04-26T14:30:08.960Z,42.40
2019-04-26T14:32:42.720Z,40.73
2019-04-26T14:35:17.467Z,44.80
2019-04-26T14:37:54.307Z,40.12
2019-04-26T14:40:27.458Z,43.78
2019-04-26T14:43:06.944Z,46.37
2019-04-26T14:45:36.353Z,42.13
2019-04-26T14:48:20.141Z,44.15
2019-04-26T14:50:45.288Z,46.05
2019-04-26T14:53:18.895Z,49.63
2019-04-26T14:55:54.688Z,50.80
2019-04-26T14:58:30.319Z,48.87
2019-04-26T15:01:07.177Z,46.25
2019-04-26T15:03:59.951Z,50.08
2019-04-26T15:06:42.411Z,47.08
2019-04-26T15:09:34.656Z,51.10
2019-04-26T15:12:07.676Z,47.10
2019-04-26T15:14:42.345Z,52.60
2019-04-26T15:17:19.462Z,53.90
2019-04-26T15:19:51.014Z,53.90
2019-04-26T15:22:24.536Z,53.35
2019-04-26T15:24:57.758Z,57.45
2019-04-26T15:27:32.128Z,48.87
2019-04-26T15:30:06.531Z,51.25
2019-04-26T15:32:40.164Z,48.30
2019-04-26T15:35:17.663Z,51.30
2019-04-26T15:37:53.461Z,47.20
2019-04-26T15:40:43.185Z,45.98
2019-04-26T15:43:33.249Z,45.52
2019-04-26T15:46:13.521Z,52.67
2019-04-26T15:49:17.935Z,45.78
2019-04-26T15:51:51.660Z,42.67
2019-04-26T15:54:25.370Z,40.40
2019-04-26T15:56:58.072Z,48.73
2019-04-26T15:59:32.903Z,41.55
2019-04-26T16:02:06.246Z,39.95
2019-04-26T16:04:40.209Z,43.48
2019-04-26T16:07:24.243Z,38.40
2019-04-26T16:09:49.329Z,49.25
2019-04-26T16:12:27.159Z,43.48
2019-04-26T16:14:59.600Z,39.30
2019-04-26T16:17:36.171Z,41.60
2019-04-26T16:20:08.344Z,39.25
2019-04-26T16:22:42.992Z,41.77
2019-04-26T16:25:16.459Z,38.42
2019-04-26T16:28:07.914Z,39.73
2019-04-26T16:30:45.564Z,33.30
2019-04-26T16:33:28.525Z,36.40
2019-04-26T16:36:02.612Z,38.35
2019-04-26T16:38:35.726Z,37.65
2019-04-26T16:41:09.291Z,39.63
2019-04-26T16:43:50.924Z,41.80
2019-04-26T16:46:20.348Z,37.23
2019-04-26T16:48:56.664Z,37.53
2019-04-26T16:51:27.205Z,46.18
2019-04-26T16:54:07.461Z,38.98
2019-04-26T16:56:37.959Z,42.95
2019-04-26T16:59:14.208Z,41.83
2019-04-26T17:01:47.455Z,34.88
2019-04-26T17:04:29.001Z,36.17
2019-04-26T17:07:01.607Z,45.28
2019-04-26T17:09:52.249Z,39.25
2019-04-26T17:12:06.538Z,40.00
2019-04-26T17:14:40.560Z,38.40
2019-04-26T17:17:14.375Z,41.23
2019-04-26T17:19:47.455Z,43.42
2019-04-26T17:22:44.606Z,38.63
2019-04-26T17:25:44.355Z,39.53
2019-04-26T17:28:22.987Z,34.92
2019-04-26T17:30:54.434Z,33.85
2019-04-26T17:33:29.124Z,34.08
2019-04-26T17:36:02.313Z,32.63
2019-04-26T17:38:39.286Z,33.48
2019-04-26T17:41:13.424Z,31.90
2019-04-26T17:43:47.082Z,26.87
2019-04-26T17:46:21.644Z,28.92
2019-04-26T17:48:55.863Z,27.35
2019-04-26T17:51:29.188Z,32.08
2019-04-26T17:54:25.934Z,28.38
2019-04-26T17:56:39.640Z,21.80
2019-04-26T17:59:30.165Z,25.60
2019-04-26T18:01:59.626Z,30.00
2019-04-26T18:04:32.291Z,28.32
2019-04-26T18:07:03.838Z,26.35
2019-04-26T18:09:44.660Z,26.55
2019-04-26T18:12:11.905Z,31.27
2019-04-26T18:14:45.633Z,28.10
2019-04-26T18:17:40.227Z,30.00
2019-04-26T18:20:23.516Z,28.45
2019-04-26T18:23:00.690Z,27.40
2019-04-26T18:25:34.212Z,29.80
2019-04-26T18:28:08.856Z,30.32
2019-04-26T18:30:44.885Z,30.82
2019-04-26T18:33:24.147Z,26.93
2019-04-26T18:35:58.136Z,27.62
2019-04-26T18:38:34.566Z,38.92
2019-04-26T18:41:07.777Z,41.33
2019-04-26T18:43:43.252Z,30.72
2019-04-26T18:46:22.012Z,33.18
2019-04-26T18:48:55.237Z,33.60
2019-04-26T18:51:28.433Z,32.25
2019-04-26T18:54:16.210Z,35.70
2019-04-26T18:56:55.535Z,32.63
2019-04-26T18:59:30.357Z,36.05
2019-04-26T19:02:11.425Z,31.65
2019-04-26T19:04:47.905Z,33.45
2019-04-26T19:07:31.897Z,32.03
2019-04-26T19:10:01.969Z,38.60
2019-04-26T19:12:34.815Z,32.17
2019-04-26T19:15:33.667Z,32.95
2019-04-26T19:18:33.819Z,36.80
2019-04-26T19:21:32.262Z,33.15
2019-04-26T19:24:11.657Z,38.88
2019-04-26T19:26:44.157Z,40.23
2019-04-26T19:29:29.284Z,39.00
2019-04-26T19:31:56.714Z,39.65
2019-04-26T19:34:31.351Z,39.35
2019-04-26T19:37:04.703Z,42.78
2019-04-26T19:39:38.742Z,39.65
2019-04-26T19:42:11.888Z,40.75
2019-04-26T19:44:50.893Z,43.25
2019-04-26T19:47:43.987Z,41.48
2019-04-26T19:50:42.014Z,41.60
2019-04-26T19:53:21.132Z,37.20
2019-04-26T19:56:01.674Z,38.67
2019-04-26T19:58:35.391Z,43.78
2019-04-26T20:01:08.594Z,40.67
2019-04-26T20:03:43.195Z,45.92
2019-04-26T20:06:18.935Z,43.48
2019-04-26T20:08:52.038Z,42.43
2019-04-26T20:11:26.014Z,46.75
2019-04-26T20:14:01.434Z,47.45
2019-04-26T20:16:36.427Z,45.38
2019-04-26T20:19:15.054Z,44.30
2019-04-26T20:21:49.657Z,50.35
2019-04-26T20:24:20.406Z,44.98
2019-04-26T20:26:52.683Z,47.08
2019-04-26T20:29:25.872Z,48.00
2019-04-26T20:32:23.818Z,48.05
2019-04-26T20:35:26.969Z,50.73
2019-04-26T20:38:01.099Z,49.65
2019-04-26T20:40:32.906Z,51.95
2019-04-26T20:43:07.066Z,49.85
2019-04-26T20:45:42.689Z,52.58
2019-04-26T20:48:17.193Z,52.73
2019-04-26T20:50:52.046Z,49.27
2019-04-26T20:53:25.835Z,50.35
2019-04-26T20:55:58.621Z,48.75
2019-04-26T20:58:32.850Z,53.02
2019-04-26T21:01:12.497Z,57.58
2019-04-26T21:03:45.927Z,57.62
2019-04-26T21:06:17.831Z,50.33
2019-04-26T21:08:53.798Z,54.10
2019-04-26T21:11:26.372Z,54.88
2019-04-26T21:14:01.850Z,54.13
2019-04-26T21:16:34.536Z,60.43
2019-04-26T21:19:08.085Z,58.02
2019-04-26T21:21:42.010Z,58.10
2019-04-26T21:24:19.732Z,59.15
2019-04-26T21:27:29.949Z,59.13
2019-04-26T21:30:33.640Z,62.75
2019-04-26T21:33:35.796Z,65.67
2019-04-26T21:36:13.704Z,55.58
2019-04-26T21:39:04.067Z,55.20
2019-04-26T21:41:40.413Z,54.65
2019-04-26T21:44:15.728Z,52.55
2019-04-26T21:46:49.563Z,55.23
2019-04-26T21:49:24.409Z,48.98
2019-04-26T21:51:58.325Z,51.65
2019-04-26T21:54:32.979Z,48.83
2019-04-26T21:57:06.851Z,57.60
2019-04-26T21:59:44.161Z,61.08
2019-04-26T22:02:17.332Z,61.85
2019-04-26T22:04:50.596Z,52.43
2019-04-26T22:07:24.229Z,54.25
2019-04-26T22:10:23.487Z,58.35
2019-04-26T22:13:01.516Z,48.23
2019-04-26T22:15:54.726Z,53.95
2019-04-26T22:18:50.503Z,44.60
2019-04-26T22:21:31.967Z,51.80
2019-04-26T22:24:13.328Z,46.63
2019-04-26T22:26:48.171Z,45.95
2019-04-26T22:29:22.888Z,48.23
2019-04-26T22:31:56.397Z,45.48
2019-04-26T22:34:30.914Z,51.20
2019-04-26T22:37:11.559Z,44.03
2019-04-26T22:39:39.900Z,46.15
